KBOS/BOS METAR and TAF weather

Enter ICAO airport designator
Station Type Date Time Source
KBOS METAR 2022/01/27 23:54 UTC NOAA

KBOS 272354Z 22011KT 10SM FEW250 M04/M13 A3030 RMK AO2 SLP259 T10441128 11028 21050 55004


Station Type Date Time Source
KBOS Decoded METAR 2022/01/27 23:54 UTC NOAA

BOSTON LOGAN INTERNATIONAL, MA, United States (KBOS) 42-22N 071-01W 54M
Jan 27, 2022 - 06:54 PM EST / 2022.01.27 2354 UTC
Wind: from the SW (220 degrees) at 13 MPH (11 KT):0
Visibility: 10 mile(s):0
Sky conditions: mostly clear
Temperature: 24.1 F (-4.4 C)
Windchill: 12 F (-11 C):1
Dew Point: 9.0 F (-12.8 C)
Relative Humidity: 51%
Pressure (altimeter): 30.3 in. Hg (1026 hPa)
Pressure tendency: 0.01 inches (0.4 hPa) lower than three hours ago
ob: KBOS 272354Z 22011KT 10SM FEW250 M04/M13 A3030 RMK AO2 SLP259 T10441128 11028 21050 55004
cycle: 0

Station Type Date Time Source
KBOS TAF 2022/01/27 21:10 UTC NOAA

TAF
AMD KBOS 272104Z 2721/2824 19011KT P6SM FEW035 BKN250
FM280200 21010KT P6SM BKN150
FM280800 23008KT P6SM OVC050

Example: see airport list